createdAt,value
2018-06-11T00:04:36.138Z,5.53
2018-06-11T00:09:30.548Z,4.40
2018-06-11T00:14:24.976Z,4.83
2018-06-11T00:19:19.433Z,5.10
2018-06-11T00:24:13.838Z,4.30
2018-06-11T00:29:08.070Z,6.73
2018-06-11T00:34:02.718Z,4.37
2018-06-11T00:38:57.164Z,4.63
2018-06-11T00:43:51.600Z,6.07
2018-06-11T00:48:46.084Z,4.73
2018-06-11T00:53:40.508Z,5.17
2018-06-11T00:58:35.023Z,5.23
2018-06-11T01:03:29.461Z,5.20
2018-06-11T01:08:23.621Z,4.87
2018-06-11T01:13:18.060Z,5.77
2018-06-11T01:18:12.464Z,6.77
2018-06-11T01:23:06.967Z,4.70
2018-06-11T01:28:01.416Z,5.07
2018-06-11T01:32:55.900Z,4.33
2018-06-11T01:37:50.413Z,8.27
2018-06-11T01:42:44.875Z,5.20
2018-06-11T01:47:39.288Z,5.77
2018-06-11T01:52:33.693Z,5.67
2018-06-11T01:57:29.115Z,5.67
2018-06-11T02:02:23.538Z,6.20
2018-06-11T02:07:18.020Z,5.33
2018-06-11T02:12:12.479Z,5.17
2018-06-11T02:17:06.984Z,4.60
2018-06-11T02:22:01.508Z,5.00
2018-06-11T02:26:55.931Z,4.87
2018-06-11T02:31:50.389Z,5.00
2018-06-11T02:36:44.845Z,7.17
2018-06-11T02:41:39.337Z,4.83
2018-06-11T02:46:33.762Z,5.10
2018-06-11T02:51:28.194Z,5.40
2018-06-11T02:56:22.718Z,6.47
2018-06-11T03:01:17.153Z,6.87
2018-06-11T03:06:11.577Z,7.47
2018-06-11T03:11:06.069Z,6.03
2018-06-11T03:16:00.502Z,6.63
2018-06-11T03:20:54.920Z,5.90
2018-06-11T03:25:49.373Z,5.60
2018-06-11T03:30:43.761Z,9.97
2018-06-11T03:35:38.216Z,6.63
2018-06-11T03:40:32.645Z,6.30
2018-06-11T03:45:27.102Z,10.47
2018-06-11T03:50:21.528Z,7.73
2018-06-11T03:55:15.995Z,6.93
2018-06-11T04:00:12.204Z,7.83
2018-06-11T04:05:06.847Z,6.43
2018-06-11T04:10:01.329Z,7.80
2018-06-11T04:14:55.754Z,5.63
2018-06-11T04:19:50.229Z,5.13
2018-06-11T04:24:44.732Z,4.97
2018-06-11T04:29:39.120Z,4.60
2018-06-11T04:34:33.569Z,5.50
2018-06-11T04:39:28.012Z,5.37
2018-06-11T04:44:22.493Z,7.33
2018-06-11T04:49:16.960Z,7.37
2018-06-11T04:54:11.436Z,7.78
2018-06-11T04:59:05.885Z,5.30
2018-06-11T05:04:00.328Z,7.03
2018-06-11T05:08:54.765Z,5.37
2018-06-11T05:13:49.190Z,7.00
2018-06-11T05:18:43.611Z,4.80
2018-06-11T05:23:38.068Z,5.62
2018-06-11T05:28:32.484Z,4.87
2018-06-11T05:33:26.930Z,7.85
2018-06-11T05:38:21.443Z,5.83
2018-06-11T05:43:15.909Z,5.60
2018-06-11T05:48:10.291Z,3.83
2018-06-11T05:53:04.804Z,3.72
2018-06-11T05:57:59.337Z,5.47
2018-06-11T06:02:53.738Z,5.22
2018-06-11T06:07:48.139Z,9.78
2018-06-11T06:12:42.564Z,5.22
2018-06-11T06:17:49.448Z,5.35
2018-06-11T06:22:44.169Z,5.17
2018-06-11T06:27:38.607Z,6.50
2018-06-11T06:32:33.668Z,6.20
2018-06-11T06:37:28.643Z,10.75
2018-06-11T06:42:23.106Z,6.70
2018-06-11T06:47:18.885Z,7.85
2018-06-11T06:52:13.303Z,5.25
2018-06-11T06:57:07.743Z,7.70
2018-06-11T07:02:02.321Z,6.08
2018-06-11T07:06:57.092Z,6.80
2018-06-11T07:12:06.092Z,6.60
2018-06-11T07:17:00.906Z,7.62
2018-06-11T07:21:55.129Z,6.62
2018-06-11T07:26:50.272Z,6.90
2018-06-11T07:31:48.092Z,11.55
2018-06-11T07:42:01.222Z,8.45
2018-06-11T07:46:56.293Z,6.50
2018-06-11T07:51:52.531Z,4.85
2018-06-11T07:56:49.604Z,6.95
2018-06-11T08:01:44.690Z,4.90
2018-06-11T08:06:39.124Z,7.03
2018-06-11T08:11:33.550Z,6.30
2018-06-11T08:16:27.708Z,7.97
2018-06-11T08:21:22.124Z,5.62
2018-06-11T08:26:16.586Z,7.72
2018-06-11T08:31:18.959Z,6.92
2018-06-11T08:36:14.580Z,5.55
2018-06-11T08:41:09.896Z,6.92
2018-06-11T08:46:05.027Z,7.55
2018-06-11T08:50:59.651Z,6.65
2018-06-11T08:55:54.310Z,8.75
2018-06-11T09:00:48.755Z,7.25
2018-06-11T09:05:44.140Z,8.80
2018-06-11T09:10:43.511Z,5.50
2018-06-11T09:15:38.761Z,7.28
2018-06-11T09:20:33.842Z,7.28
2018-06-11T09:25:32.229Z,9.20
2018-06-11T09:30:27.052Z,4.87
2018-06-11T09:35:21.655Z,7.95
2018-06-11T09:40:16.134Z,5.30
2018-06-11T09:45:10.767Z,8.75
2018-06-11T09:50:05.676Z,5.20
2018-06-11T09:55:00.115Z,7.80
2018-06-11T09:59:57.219Z,4.95
2018-06-11T10:04:51.939Z,7.67
2018-06-11T10:09:46.386Z,6.62
2018-06-11T10:14:41.133Z,6.53
2018-06-11T10:19:35.586Z,5.35
2018-06-11T10:24:30.060Z,5.30
2018-06-11T10:29:24.473Z,4.53
2018-06-11T10:34:19.902Z,5.90
2018-06-11T10:39:14.628Z,6.08
2018-06-11T10:44:09.122Z,5.70
2018-06-11T10:49:06.448Z,7.12
2018-06-11T10:54:01.542Z,5.42
2018-06-11T10:58:56.004Z,6.58
2018-06-11T11:03:50.752Z,6.92
2018-06-11T11:08:47.712Z,6.78
2018-06-11T11:13:42.285Z,6.28
2018-06-11T11:18:57.652Z,9.08
2018-06-11T11:23:52.449Z,7.45
2018-06-11T11:28:46.879Z,6.83
2018-06-11T11:33:41.517Z,8.70
2018-06-11T11:38:42.829Z,9.38
2018-06-11T11:43:37.351Z,7.90
2018-06-11T11:48:31.873Z,7.28
2018-06-11T11:53:26.821Z,6.55
2018-06-11T11:58:21.488Z,9.68
2018-06-11T12:03:15.930Z,11.22
2018-06-11T12:08:10.397Z,12.60
2018-06-11T12:13:05.097Z,11.30
2018-06-11T12:17:59.577Z,10.98
2018-06-11T12:22:53.756Z,12.68
2018-06-11T12:27:48.497Z,9.08
2018-06-11T12:32:42.958Z,8.30
2018-06-11T12:37:38.483Z,10.55
2018-06-11T12:42:34.881Z,9.60
2018-06-11T12:47:29.425Z,7.58
2018-06-11T12:52:23.989Z,8.03
2018-06-11T12:57:18.147Z,9.18
2018-06-11T13:02:16.390Z,9.55
2018-06-11T13:07:12.715Z,7.05
2018-06-11T13:12:07.322Z,9.45
2018-06-11T13:17:04.136Z,8.58
2018-06-11T13:21:59.133Z,8.15
2018-06-11T13:26:53.935Z,9.30
2018-06-11T13:31:48.633Z,9.23
2018-06-11T13:36:43.704Z,13.45
2018-06-11T13:41:38.442Z,12.28
2018-06-11T13:46:33.423Z,9.38
2018-06-11T13:51:27.891Z,9.90
2018-06-11T13:56:22.420Z,11.33
2018-06-11T14:01:17.262Z,10.90
2018-06-11T14:06:11.743Z,11.45
2018-06-11T14:11:06.338Z,13.90
2018-06-11T14:16:03.336Z,11.75
2018-06-11T14:20:57.998Z,15.98
2018-06-11T14:25:52.463Z,13.80
2018-06-11T14:30:47.044Z,19.95
2018-06-11T14:35:41.749Z,22.35
2018-06-11T14:40:36.570Z,14.63
2018-06-11T14:45:31.591Z,18.85
2018-06-11T14:50:26.165Z,17.87
2018-06-11T14:55:21.199Z,18.37
2018-06-11T15:00:19.629Z,19.57
2018-06-11T15:05:14.697Z,15.35
2018-06-11T15:10:09.497Z,12.13
2018-06-11T15:15:04.317Z,11.40
2018-06-11T15:19:59.225Z,14.95
2018-06-11T15:24:54.150Z,14.33
2018-06-11T15:29:50.165Z,8.25
2018-06-11T15:34:46.805Z,11.88
2018-06-11T15:39:41.668Z,10.33
2018-06-11T15:44:36.264Z,11.63
2018-06-11T15:49:30.974Z,8.07
2018-06-11T15:54:25.657Z,11.37
2018-06-11T15:59:20.624Z,7.30
2018-06-11T16:04:15.223Z,8.53
2018-06-11T16:09:09.947Z,7.27
2018-06-11T16:14:04.590Z,7.77
2018-06-11T16:18:59.114Z,6.37
2018-06-11T16:23:53.958Z,5.90
2018-06-11T16:28:48.687Z,5.33
2018-06-11T16:33:43.445Z,4.97
2018-06-11T16:38:38.712Z,4.33
2018-06-11T16:45:02.651Z,3.53
2018-06-11T16:49:57.363Z,5.00
2018-06-11T16:54:51.988Z,2.83
2018-06-11T16:59:47.998Z,3.20
2018-06-11T17:04:43.460Z,3.45
2018-06-11T17:09:38.089Z,3.90
2018-06-11T17:14:32.794Z,3.27
2018-06-11T17:19:29.110Z,2.33
2018-06-11T17:24:25.657Z,5.53
2018-06-11T17:29:20.277Z,1.95
2018-06-11T17:34:14.879Z,2.77
2018-06-11T17:39:09.463Z,2.90
2018-06-11T17:44:03.988Z,2.80
2018-06-11T17:48:58.535Z,4.15
2018-06-11T17:53:53.069Z,1.55
2018-06-11T17:58:48.667Z,2.87
2018-06-11T18:03:43.156Z,1.60
2018-06-11T18:08:37.665Z,3.75
2018-06-11T18:13:32.290Z,3.95
2018-06-11T18:18:26.825Z,1.50
2018-06-11T18:23:21.350Z,1.83
2018-06-11T18:28:15.853Z,4.72
2018-06-11T18:33:10.505Z,1.27
2018-06-11T18:38:05.021Z,2.13
2018-06-11T18:42:59.650Z,1.47
2018-06-11T18:47:54.134Z,1.23
2018-06-11T18:52:49.537Z,2.73
2018-06-11T18:57:44.058Z,0.90
2018-06-11T19:02:39.516Z,1.50
2018-06-11T19:07:33.682Z,3.80
2018-06-11T19:12:28.190Z,2.80
2018-06-11T19:17:22.884Z,3.67
2018-06-11T19:22:17.364Z,2.50
2018-06-11T19:27:11.904Z,4.80
2018-06-11T19:32:06.555Z,1.77
2018-06-11T19:37:01.091Z,1.80
2018-06-11T19:41:55.577Z,2.30
2018-06-11T19:46:50.103Z,2.30
2018-06-11T19:51:44.735Z,3.80
2018-06-11T19:56:39.400Z,2.47
2018-06-11T20:01:33.862Z,3.03
2018-06-11T20:06:28.322Z,2.20
2018-06-11T20:11:22.833Z,3.47
2018-06-11T20:16:18.436Z,2.67
2018-06-11T20:21:12.938Z,4.80
2018-06-11T20:26:07.486Z,3.20
2018-06-11T20:31:02.010Z,2.30
2018-06-11T20:35:56.541Z,2.07
2018-06-11T20:40:51.003Z,3.67
2018-06-11T20:47:14.956Z,1.53
2018-06-11T20:52:09.567Z,2.50
2018-06-11T20:57:04.185Z,4.33
2018-06-11T21:01:58.386Z,4.43
2018-06-11T21:06:52.797Z,2.50
2018-06-11T21:11:47.265Z,3.00
2018-06-11T21:16:41.704Z,2.87
2018-06-11T21:21:35.966Z,4.00
2018-06-11T21:26:30.465Z,3.17
2018-06-11T21:31:25.012Z,2.73
2018-06-11T21:36:19.476Z,4.83
2018-06-11T21:41:14.097Z,6.17
2018-06-11T21:46:08.578Z,2.87
2018-06-11T21:51:03.544Z,2.83
2018-06-11T21:55:58.040Z,3.73
2018-06-11T22:00:52.501Z,4.73
2018-06-11T22:05:47.005Z,4.73
2018-06-11T22:10:41.430Z,2.47
2018-06-11T22:15:35.929Z,4.23
2018-06-11T22:20:30.443Z,4.13
2018-06-11T22:25:24.908Z,3.93
2018-06-11T22:30:19.440Z,3.10
2018-06-11T22:35:13.932Z,5.00
2018-06-11T22:40:08.388Z,3.03
2018-06-11T22:45:03.000Z,5.30
2018-06-11T22:49:57.568Z,4.40
2018-06-11T22:54:52.048Z,10.30
2018-06-11T22:59:46.518Z,2.90
2018-06-11T23:06:09.995Z,3.97
2018-06-11T23:11:04.604Z,3.97
2018-06-11T23:15:59.382Z,6.27
2018-06-11T23:20:53.901Z,4.80
2018-06-11T23:25:48.328Z,6.30
2018-06-11T23:30:42.753Z,3.20
2018-06-11T23:35:37.202Z,10.77
2018-06-11T23:40:31.610Z,7.40
2018-06-11T23:45:26.987Z,7.37
2018-06-11T23:50:21.277Z,4.57
2018-06-11T23:55:15.785Z,5.87
